createdAt,value
2019-01-24T00:00:34.134Z,44.40
2019-01-24T00:03:08.456Z,47.40
2019-01-24T00:05:42.759Z,47.17
2019-01-24T00:08:17.089Z,40.93
2019-01-24T00:10:51.417Z,39.27
2019-01-24T00:13:25.715Z,39.37
2019-01-24T00:16:00.047Z,43.20
2019-01-24T00:18:34.353Z,46.20
2019-01-24T00:21:08.673Z,44.60
2019-01-24T00:23:43.007Z,41.83
2019-01-24T00:26:17.331Z,42.83
2019-01-24T00:28:51.639Z,46.93
2019-01-24T00:31:25.968Z,47.20
2019-01-24T00:34:00.272Z,49.93
2019-01-24T00:36:34.603Z,44.27
2019-01-24T00:39:09.210Z,45.87
2019-01-24T00:41:43.506Z,45.07
2019-01-24T00:44:17.837Z,41.70
2019-01-24T00:46:52.141Z,42.73
2019-01-24T00:49:26.471Z,41.83
2019-01-24T00:52:00.800Z,42.40
2019-01-24T00:54:35.123Z,43.27
2019-01-24T00:57:09.419Z,42.80
2019-01-24T00:59:43.743Z,42.27
2019-01-24T01:02:18.049Z,42.73
2019-01-24T01:04:52.377Z,43.50
2019-01-24T01:07:26.677Z,45.73
2019-01-24T01:10:01.017Z,45.57
2019-01-24T01:12:35.321Z,43.60
2019-01-24T01:15:18.648Z,41.73
2019-01-24T01:17:52.976Z,40.77
2019-01-24T01:20:27.279Z,41.33
2019-01-24T01:23:01.603Z,39.67
2019-01-24T01:25:35.905Z,40.13
2019-01-24T01:28:10.235Z,38.67
2019-01-24T01:30:44.571Z,37.03
2019-01-24T01:33:18.870Z,35.03
2019-01-24T01:35:53.185Z,38.27
2019-01-24T01:38:27.519Z,38.73
2019-01-24T01:41:01.821Z,40.93
2019-01-24T01:43:36.146Z,41.20
2019-01-24T01:46:10.449Z,40.50
2019-01-24T01:48:44.779Z,42.60
2019-01-24T01:51:19.084Z,40.67
2019-01-24T01:53:53.411Z,41.33
2019-01-24T01:56:27.714Z,40.77
2019-01-24T01:59:02.046Z,39.30
2019-01-24T02:01:36.345Z,38.13
2019-01-24T02:04:10.666Z,39.37
2019-01-24T02:06:44.998Z,38.37
2019-01-24T02:09:19.338Z,41.30
2019-01-24T02:11:53.639Z,38.90
2019-01-24T02:14:27.976Z,38.27
2019-01-24T02:17:02.308Z,41.73
2019-01-24T02:19:36.611Z,41.63
2019-01-24T02:22:10.944Z,39.30
2019-01-24T02:24:45.246Z,39.77
2019-01-24T02:27:19.582Z,40.47
2019-01-24T02:29:53.877Z,38.63
2019-01-24T02:32:28.214Z,41.90
2019-01-24T02:35:02.509Z,40.53
2019-01-24T02:37:36.835Z,41.20
2019-01-24T02:40:11.436Z,41.30
2019-01-24T02:42:45.774Z,39.70
2019-01-24T02:45:23.641Z,40.53
2019-01-24T02:47:57.973Z,40.43
2019-01-24T02:50:32.270Z,38.10
2019-01-24T02:53:06.605Z,39.87
2019-01-24T02:55:40.926Z,40.30
2019-01-24T02:58:15.242Z,41.77
2019-01-24T03:00:49.566Z,41.90
2019-01-24T03:03:23.881Z,40.07
2019-01-24T03:05:58.196Z,40.97
2019-01-24T03:08:32.498Z,39.93
2019-01-24T03:11:06.829Z,39.27
2019-01-24T03:13:42.147Z,41.07
2019-01-24T03:16:16.459Z,39.73
2019-01-24T03:18:50.784Z,40.07
2019-01-24T03:21:25.123Z,38.30
2019-01-24T03:23:59.424Z,37.60
2019-01-24T03:26:33.758Z,37.50
2019-01-24T03:29:08.060Z,39.07
2019-01-24T03:31:42.387Z,40.73
2019-01-24T03:34:16.704Z,41.13
2019-01-24T03:36:51.097Z,37.93
2019-01-24T03:39:25.403Z,38.47
2019-01-24T03:41:59.736Z,38.77
2019-01-24T03:44:34.038Z,37.73
2019-01-24T03:47:08.436Z,39.20
2019-01-24T03:49:42.735Z,40.87
2019-01-24T03:52:17.058Z,38.87
2019-01-24T03:54:51.383Z,41.23
2019-01-24T03:57:25.706Z,39.93
2019-01-24T04:00:00.034Z,41.03
2019-01-24T04:02:34.338Z,38.47
2019-01-24T04:05:11.944Z,40.13
2019-01-24T04:07:44.676Z,40.37
2019-01-24T04:10:23.133Z,37.83
2019-01-24T04:12:57.424Z,40.93
2019-01-24T04:15:31.775Z,39.73
2019-01-24T04:18:06.145Z,40.07
2019-01-24T04:20:40.472Z,37.93
2019-01-24T04:23:14.772Z,38.73
2019-01-24T04:25:49.109Z,39.03
2019-01-24T04:28:23.436Z,38.67
2019-01-24T04:30:57.741Z,39.53
2019-01-24T04:33:32.071Z,38.93
2019-01-24T04:36:06.375Z,38.70
2019-01-24T04:38:40.706Z,37.07
2019-01-24T04:41:15.009Z,37.33
2019-01-24T04:43:49.349Z,38.03
2019-01-24T04:46:23.649Z,38.70
2019-01-24T04:48:57.996Z,40.13
2019-01-24T04:51:32.301Z,43.07
2019-01-24T04:54:06.631Z,41.23
2019-01-24T04:56:40.966Z,40.80
2019-01-24T04:59:15.300Z,42.90
2019-01-24T05:01:49.599Z,43.57
2019-01-24T05:04:23.931Z,43.63
2019-01-24T05:06:58.247Z,43.10
2019-01-24T05:09:32.561Z,43.57
2019-01-24T05:12:06.884Z,40.97
2019-01-24T05:14:41.215Z,39.80
2019-01-24T05:17:15.551Z,37.33
2019-01-24T05:19:49.883Z,40.43
2019-01-24T05:22:24.227Z,39.87
2019-01-24T05:24:58.526Z,41.80
2019-01-24T05:27:32.863Z,39.70
2019-01-24T05:30:14.551Z,42.63
2019-01-24T05:32:48.853Z,42.20
2019-01-24T05:35:23.209Z,41.13
2019-01-24T05:37:57.496Z,41.03
2019-01-24T05:40:31.848Z,39.37
2019-01-24T05:43:06.144Z,40.47
2019-01-24T05:45:40.483Z,40.57
2019-01-24T05:48:14.777Z,38.57
2019-01-24T05:50:49.097Z,40.27
2019-01-24T05:53:23.655Z,41.07
2019-01-24T05:55:57.983Z,38.27
2019-01-24T05:58:32.318Z,38.63
2019-01-24T06:01:08.082Z,40.47
2019-01-24T06:03:42.414Z,38.23
2019-01-24T06:06:16.718Z,38.77
2019-01-24T06:08:51.052Z,39.00
2019-01-24T06:11:25.525Z,39.97
2019-01-24T06:13:59.875Z,39.73
2019-01-24T06:16:34.176Z,42.10
2019-01-24T06:19:08.508Z,38.60
2019-01-24T06:21:42.807Z,39.40
2019-01-24T06:24:17.138Z,38.53
2019-01-24T06:26:51.473Z,41.40
2019-01-24T06:29:25.774Z,40.43
2019-01-24T06:32:00.108Z,40.83
2019-01-24T06:34:34.440Z,42.47
2019-01-24T06:37:08.738Z,48.67
2019-01-24T06:39:43.092Z,45.90
2019-01-24T06:42:17.413Z,46.63
2019-01-24T06:44:51.740Z,46.47
2019-01-24T06:47:26.087Z,45.27
2019-01-24T06:50:00.393Z,44.70
2019-01-24T06:52:34.725Z,45.23
2019-01-24T06:55:13.842Z,44.40
2019-01-24T06:57:48.180Z,44.97
2019-01-24T07:00:22.483Z,50.20
2019-01-24T07:02:56.819Z,46.37
2019-01-24T07:05:31.157Z,44.13
2019-01-24T07:08:05.494Z,46.00
2019-01-24T07:10:39.856Z,45.70
2019-01-24T07:13:14.191Z,44.10
2019-01-24T07:15:48.491Z,43.80
2019-01-24T07:18:22.821Z,45.63
2019-01-24T07:20:57.154Z,43.00
2019-01-24T07:23:31.487Z,42.77
2019-01-24T07:26:05.785Z,41.97
2019-01-24T07:28:40.115Z,42.20
2019-01-24T07:31:14.457Z,44.37
2019-01-24T07:33:48.748Z,45.33
2019-01-24T07:36:23.069Z,42.80
2019-01-24T07:38:57.446Z,41.77
2019-01-24T07:41:31.772Z,43.17
2019-01-24T07:44:06.101Z,41.17
2019-01-24T07:46:40.401Z,43.60
2019-01-24T07:49:14.797Z,43.20
2019-01-24T07:51:49.129Z,45.50
2019-01-24T07:54:23.426Z,42.10
2019-01-24T07:56:57.742Z,42.97
2019-01-24T07:59:32.031Z,41.80
2019-01-24T08:02:06.356Z,44.47
2019-01-24T08:04:40.643Z,41.37
2019-01-24T08:07:14.972Z,43.50
2019-01-24T08:09:49.357Z,42.43
2019-01-24T08:12:24.556Z,40.70
2019-01-24T08:14:58.855Z,40.30
2019-01-24T08:17:33.206Z,41.50
2019-01-24T08:20:14.313Z,43.67
2019-01-24T08:22:48.644Z,41.80
2019-01-24T08:25:23.105Z,41.57
2019-01-24T08:27:57.395Z,42.13
2019-01-24T08:30:33.148Z,40.93
2019-01-24T08:33:07.462Z,48.40
2019-01-24T08:35:41.782Z,46.33
2019-01-24T08:38:16.078Z,45.00
2019-01-24T08:40:50.407Z,44.13
2019-01-24T08:43:24.701Z,46.43
2019-01-24T08:45:59.046Z,48.03
2019-01-24T08:48:33.336Z,49.67
2019-01-24T08:51:07.659Z,48.13
2019-01-24T08:53:41.995Z,47.30
2019-01-24T08:56:16.301Z,45.63
2019-01-24T08:58:50.623Z,38.60
2019-01-24T09:01:24.939Z,39.47
2019-01-24T09:03:59.261Z,36.27
2019-01-24T09:06:33.584Z,34.93
2019-01-24T09:09:08.551Z,40.07
2019-01-24T09:11:42.846Z,42.30
2019-01-24T09:14:17.162Z,45.30
2019-01-24T09:16:51.483Z,41.30
2019-01-24T09:19:25.787Z,38.13
2019-01-24T09:22:00.116Z,39.67
2019-01-24T09:24:34.409Z,38.53
2019-01-24T09:27:08.723Z,40.13
2019-01-24T09:29:43.051Z,37.17
2019-01-24T09:32:17.349Z,40.33
2019-01-24T09:34:52.087Z,39.20
2019-01-24T09:37:26.376Z,38.40
2019-01-24T09:40:00.692Z,37.70
2019-01-24T09:42:34.984Z,38.73
2019-01-24T09:45:19.330Z,38.43
2019-01-24T09:47:54.437Z,38.83
2019-01-24T09:50:29.770Z,39.07
2019-01-24T09:53:04.058Z,37.87
2019-01-24T09:55:38.375Z,34.90
2019-01-24T09:58:12.668Z,35.67
2019-01-24T10:00:46.985Z,37.53
2019-01-24T10:03:21.273Z,38.10
2019-01-24T10:05:55.590Z,34.17
2019-01-24T10:08:29.881Z,36.37
2019-01-24T10:11:04.198Z,37.27
2019-01-24T10:13:38.488Z,37.93
2019-01-24T10:16:12.804Z,39.13
2019-01-24T10:18:47.132Z,37.80
2019-01-24T10:21:21.502Z,39.80
2019-01-24T10:23:55.824Z,36.97
2019-01-24T10:26:30.130Z,37.23
2019-01-24T10:29:04.448Z,40.03
2019-01-24T10:31:38.814Z,39.57
2019-01-24T10:34:13.219Z,39.43
2019-01-24T10:36:47.581Z,37.60
2019-01-24T10:39:21.911Z,39.67
2019-01-24T10:41:56.236Z,39.57
2019-01-24T10:44:30.558Z,38.73
2019-01-24T10:47:04.849Z,36.97
2019-01-24T10:49:39.193Z,37.60
2019-01-24T10:52:13.489Z,36.90
2019-01-24T10:54:47.810Z,35.67
2019-01-24T10:57:22.141Z,37.67
2019-01-24T10:59:56.459Z,36.30
2019-01-24T11:02:30.783Z,35.67
2019-01-24T11:05:09.197Z,36.00
2019-01-24T11:07:43.565Z,35.03
2019-01-24T11:10:20.859Z,37.07
2019-01-24T11:12:55.244Z,35.93
2019-01-24T11:15:29.621Z,35.40
2019-01-24T11:18:05.096Z,34.30
2019-01-24T11:20:39.443Z,37.53
2019-01-24T11:23:13.787Z,37.57
2019-01-24T11:25:48.105Z,36.67
2019-01-24T11:28:22.394Z,36.37
2019-01-24T11:30:56.742Z,34.67
2019-01-24T11:33:31.002Z,36.43
2019-01-24T11:36:05.322Z,35.70
2019-01-24T11:38:39.612Z,39.17
2019-01-24T11:41:13.932Z,37.83
2019-01-24T11:43:48.225Z,37.17
2019-01-24T11:46:22.552Z,37.97
2019-01-24T11:48:56.857Z,37.70
2019-01-24T11:51:31.177Z,37.90
2019-01-24T11:54:05.470Z,37.77
2019-01-24T11:56:39.799Z,34.97
2019-01-24T11:59:14.085Z,34.73
2019-01-24T12:01:48.403Z,34.80
2019-01-24T12:04:22.729Z,35.07
2019-01-24T12:06:57.016Z,37.03
2019-01-24T12:09:31.420Z,35.10
2019-01-24T12:12:05.714Z,34.67
2019-01-24T12:14:40.048Z,36.23
2019-01-24T12:17:14.362Z,36.90
2019-01-24T12:19:48.702Z,36.23
2019-01-24T12:22:22.995Z,35.07
2019-01-24T12:24:57.316Z,36.70
2019-01-24T12:27:31.633Z,37.20
2019-01-24T12:30:28.279Z,38.27
2019-01-24T12:33:03.316Z,38.03
2019-01-24T12:35:37.607Z,35.97
2019-01-24T12:38:11.923Z,37.20
2019-01-24T12:40:46.243Z,36.00
2019-01-24T12:43:20.532Z,37.97
2019-01-24T12:45:54.854Z,37.13
2019-01-24T12:48:29.168Z,36.50
2019-01-24T12:51:03.466Z,36.77
2019-01-24T12:53:37.781Z,36.57
2019-01-24T12:56:12.100Z,36.97
2019-01-24T12:58:46.391Z,36.97
2019-01-24T13:01:20.714Z,36.73
2019-01-24T13:03:55.009Z,36.37
2019-01-24T13:06:29.328Z,38.10
2019-01-24T13:09:05.186Z,39.40
2019-01-24T13:11:39.509Z,39.37
2019-01-24T13:14:13.812Z,37.43
2019-01-24T13:16:48.116Z,37.03
2019-01-24T13:19:22.428Z,38.07
2019-01-24T13:21:56.747Z,39.03
2019-01-24T13:24:31.061Z,38.40
2019-01-24T13:27:05.430Z,40.23
2019-01-24T13:29:39.745Z,37.00
2019-01-24T13:32:14.055Z,37.20
2019-01-24T13:34:48.381Z,36.80
2019-01-24T13:37:26.015Z,40.60
2019-01-24T13:39:58.706Z,39.07
2019-01-24T13:42:32.999Z,39.07
2019-01-24T13:45:11.939Z,37.63
2019-01-24T13:47:46.401Z,37.17
2019-01-24T13:50:20.695Z,38.83
2019-01-24T13:52:55.010Z,37.27
2019-01-24T13:55:29.305Z,36.53
2019-01-24T13:58:03.616Z,36.00
2019-01-24T14:00:38.079Z,37.90
2019-01-24T14:03:22.411Z,35.97
2019-01-24T14:05:56.736Z,37.63
2019-01-24T14:08:31.025Z,37.60
2019-01-24T14:11:05.335Z,35.03
2019-01-24T14:13:39.623Z,36.60
2019-01-24T14:16:13.947Z,37.00
2019-01-24T14:18:48.314Z,35.23
2019-01-24T14:21:22.628Z,35.23
2019-01-24T14:23:56.917Z,36.07
2019-01-24T14:26:31.238Z,35.57
2019-01-24T14:29:05.529Z,34.63
2019-01-24T14:31:39.851Z,35.77
2019-01-24T14:34:14.224Z,35.73
2019-01-24T14:36:48.535Z,35.57
2019-01-24T14:39:22.833Z,36.67
2019-01-24T14:41:57.164Z,36.53
2019-01-24T14:44:31.486Z,37.00
2019-01-24T14:47:07.748Z,36.00
2019-01-24T14:49:42.032Z,38.47
2019-01-24T14:52:16.422Z,38.10
2019-01-24T14:54:50.787Z,37.27
2019-01-24T14:57:25.097Z,37.67
2019-01-24T14:59:59.503Z,35.50
2019-01-24T15:02:33.892Z,37.17
2019-01-24T15:05:10.920Z,37.77
2019-01-24T15:07:47.328Z,38.60
2019-01-24T15:10:21.373Z,37.90
2019-01-24T15:12:55.697Z,34.30
2019-01-24T15:15:30.086Z,33.80
2019-01-24T15:18:04.473Z,33.43
2019-01-24T15:20:39.346Z,34.67
2019-01-24T15:23:13.655Z,33.93
2019-01-24T15:25:47.958Z,35.30
2019-01-24T15:28:22.323Z,33.67
2019-01-24T15:30:56.566Z,31.67
2019-01-24T15:33:30.887Z,33.73
2019-01-24T15:36:05.181Z,37.83
2019-01-24T15:38:39.501Z,37.23
2019-01-24T15:41:13.786Z,36.77
2019-01-24T15:43:48.107Z,37.97
2019-01-24T15:46:22.415Z,35.20
2019-01-24T15:48:56.723Z,36.70
2019-01-24T15:51:31.055Z,34.53
2019-01-24T15:54:05.505Z,35.50
2019-01-24T15:56:39.828Z,35.43
2019-01-24T15:59:14.143Z,35.87
2019-01-24T16:01:48.445Z,34.70
2019-01-24T16:04:22.755Z,37.57
2019-01-24T16:06:57.089Z,39.97
2019-01-24T16:09:31.375Z,38.93
2019-01-24T16:12:05.667Z,37.77
2019-01-24T16:14:39.988Z,36.37
2019-01-24T16:17:14.311Z,38.70
2019-01-24T16:19:48.608Z,37.23
2019-01-24T16:22:22.937Z,31.90
2019-01-24T16:24:57.236Z,34.20
2019-01-24T16:27:31.562Z,33.13
2019-01-24T16:30:10.753Z,34.77
2019-01-24T16:32:45.078Z,31.53
2019-01-24T16:35:20.715Z,36.43
2019-01-24T16:37:55.019Z,38.37
2019-01-24T16:40:30.390Z,37.13
2019-01-24T16:43:04.865Z,43.70
2019-01-24T16:45:39.225Z,41.37
2019-01-24T16:48:13.515Z,40.70
2019-01-24T16:50:47.850Z,36.70
2019-01-24T16:53:22.136Z,31.07
2019-01-24T16:55:56.465Z,34.40
2019-01-24T16:58:30.765Z,40.13
2019-01-24T17:01:05.537Z,36.20
2019-01-24T17:03:39.865Z,35.90
2019-01-24T17:06:14.189Z,35.03
2019-01-24T17:08:48.491Z,40.03
2019-01-24T17:11:22.818Z,41.47
2019-01-24T17:13:57.120Z,36.13
2019-01-24T17:16:31.457Z,33.00
2019-01-24T17:19:05.819Z,34.23
2019-01-24T17:21:40.144Z,33.60
2019-01-24T17:24:14.446Z,32.73
2019-01-24T17:26:48.775Z,32.40
2019-01-24T17:29:23.068Z,32.73
2019-01-24T17:31:57.397Z,34.03
2019-01-24T17:34:31.717Z,32.67
2019-01-24T17:37:06.018Z,33.80
2019-01-24T17:39:40.338Z,28.87
2019-01-24T17:42:14.633Z,33.17
2019-01-24T17:44:48.965Z,31.30
2019-01-24T17:47:23.262Z,29.63
2019-01-24T17:49:57.586Z,26.97
2019-01-24T17:52:31.888Z,27.83
2019-01-24T17:55:16.799Z,29.90
2019-01-24T17:57:51.103Z,29.63
2019-01-24T18:00:27.067Z,29.67
2019-01-24T18:03:01.373Z,28.50
2019-01-24T18:05:35.684Z,28.27
2019-01-24T18:08:10.025Z,29.27
2019-01-24T18:10:44.332Z,29.57
2019-01-24T18:13:18.635Z,28.70
2019-01-24T18:15:52.966Z,28.13
2019-01-24T18:18:27.262Z,30.63
2019-01-24T18:21:01.588Z,28.07
2019-01-24T18:23:35.926Z,27.37
2019-01-24T18:26:10.234Z,28.43
2019-01-24T18:28:45.125Z,28.50
2019-01-24T18:31:19.485Z,28.93
2019-01-24T18:33:53.783Z,27.10
2019-01-24T18:36:28.110Z,29.03
2019-01-24T18:39:02.429Z,26.63
2019-01-24T18:41:36.757Z,23.90
2019-01-24T18:44:11.044Z,25.07
2019-01-24T18:46:45.371Z,25.40
2019-01-24T18:49:19.669Z,25.47
2019-01-24T18:51:53.997Z,27.53
2019-01-24T18:54:28.306Z,26.00
2019-01-24T18:57:02.615Z,26.07
2019-01-24T18:59:36.932Z,23.93
2019-01-24T19:02:11.229Z,21.33
2019-01-24T19:04:45.558Z,23.97
2019-01-24T19:07:19.857Z,24.73
2019-01-24T19:09:54.183Z,23.50
2019-01-24T19:12:28.492Z,24.33
2019-01-24T19:15:02.826Z,23.10
2019-01-24T19:17:37.127Z,24.80
2019-01-24T19:20:13.264Z,22.00
2019-01-24T19:22:47.589Z,27.57
2019-01-24T19:25:22.360Z,36.97
2019-01-24T19:27:56.690Z,36.70
2019-01-24T19:30:34.077Z,31.27
2019-01-24T19:33:08.381Z,30.10
2019-01-24T19:35:42.704Z,27.67
2019-01-24T19:38:17.153Z,29.07
2019-01-24T19:40:51.480Z,29.33
2019-01-24T19:43:25.810Z,24.90
2019-01-24T19:46:00.106Z,18.57
2019-01-24T19:48:34.446Z,26.83
2019-01-24T19:51:08.753Z,29.63
2019-01-24T19:53:43.147Z,24.77
2019-01-24T19:56:17.494Z,27.13
2019-01-24T19:58:51.836Z,26.13
2019-01-24T20:01:26.133Z,25.40
2019-01-24T20:04:00.470Z,18.53
2019-01-24T20:06:34.767Z,27.17
2019-01-24T20:09:09.094Z,25.37
2019-01-24T20:11:43.399Z,25.33
2019-01-24T20:14:17.743Z,25.13
2019-01-24T20:16:52.038Z,25.20
2019-01-24T20:19:26.366Z,27.00
2019-01-24T20:22:00.684Z,22.83
2019-01-24T20:24:34.984Z,22.43
2019-01-24T20:27:09.305Z,24.67
2019-01-24T20:29:43.635Z,26.47
2019-01-24T20:32:17.933Z,26.00
2019-01-24T20:34:52.263Z,22.57
2019-01-24T20:37:26.561Z,25.40
2019-01-24T20:40:00.886Z,26.73
2019-01-24T20:42:35.184Z,22.57
2019-01-24T20:45:11.920Z,25.97
2019-01-24T20:47:46.247Z,22.87
2019-01-24T20:50:20.547Z,25.43
2019-01-24T20:52:54.881Z,24.43
2019-01-24T20:55:29.191Z,25.10
2019-01-24T20:58:03.520Z,23.60
2019-01-24T21:00:37.889Z,26.33
2019-01-24T21:03:12.205Z,23.60
2019-01-24T21:05:46.514Z,24.77
2019-01-24T21:08:20.837Z,23.47
2019-01-24T21:10:55.165Z,24.27
2019-01-24T21:13:29.485Z,21.00
2019-01-24T21:16:03.784Z,26.20
2019-01-24T21:18:38.131Z,24.23
2019-01-24T21:21:12.501Z,23.83
2019-01-24T21:23:46.838Z,23.37
2019-01-24T21:26:21.141Z,21.57
2019-01-24T21:28:55.476Z,25.67
2019-01-24T21:31:29.789Z,24.53
2019-01-24T21:34:04.113Z,25.07
2019-01-24T21:36:38.409Z,26.60
2019-01-24T21:39:12.741Z,25.57
2019-01-24T21:41:47.041Z,23.13
2019-01-24T21:44:21.387Z,23.93
2019-01-24T21:46:55.677Z,19.93
2019-01-24T21:49:30.013Z,23.50
2019-01-24T21:52:04.309Z,23.67
2019-01-24T21:54:39.516Z,23.87
2019-01-24T21:57:13.815Z,23.60
2019-01-24T21:59:48.182Z,22.20
2019-01-24T22:02:22.481Z,22.77
2019-01-24T22:04:56.777Z,23.07
2019-01-24T22:07:31.106Z,24.77
2019-01-24T22:10:10.437Z,22.60
2019-01-24T22:12:44.759Z,17.60
2019-01-24T22:15:22.270Z,22.53
2019-01-24T22:17:56.598Z,21.07
2019-01-24T22:20:30.892Z,21.17
2019-01-24T22:23:05.762Z,23.00
2019-01-24T22:25:40.091Z,21.47
2019-01-24T22:28:14.397Z,21.43
2019-01-24T22:30:49.698Z,19.60
2019-01-24T22:33:24.002Z,20.47
2019-01-24T22:35:58.318Z,19.07
2019-01-24T22:38:32.691Z,17.83
2019-01-24T22:41:07.061Z,21.10
2019-01-24T22:43:41.392Z,21.40
2019-01-24T22:46:15.689Z,22.47
2019-01-24T22:48:50.016Z,17.93
2019-01-24T22:51:24.316Z,20.03
2019-01-24T22:53:58.641Z,20.57
2019-01-24T22:56:35.509Z,17.60
2019-01-24T22:59:08.995Z,19.80
2019-01-24T23:01:44.505Z,20.87
2019-01-24T23:04:18.901Z,20.20
2019-01-24T23:06:53.201Z,19.40
2019-01-24T23:09:27.530Z,19.53
2019-01-24T23:12:01.870Z,20.03
2019-01-24T23:14:36.161Z,19.37
2019-01-24T23:17:10.499Z,15.33
2019-01-24T23:19:44.827Z,16.13
2019-01-24T23:22:19.158Z,18.90
2019-01-24T23:24:53.456Z,19.37
2019-01-24T23:27:27.782Z,20.27
2019-01-24T23:30:02.089Z,18.63
2019-01-24T23:32:36.424Z,18.57
2019-01-24T23:35:10.759Z,18.27
2019-01-24T23:37:45.061Z,18.70
2019-01-24T23:40:19.952Z,16.60
2019-01-24T23:42:54.239Z,16.10
2019-01-24T23:45:28.564Z,14.50
2019-01-24T23:48:02.932Z,14.87
2019-01-24T23:50:37.254Z,15.40
2019-01-24T23:53:11.554Z,17.63
2019-01-24T23:55:45.884Z,16.43
2019-01-24T23:58:20.182Z,15.13
